Time;durP1;ratioP1;P1;durP2;ratioP2;P2;SDS_P1;SDS_P2;PMS_P1;PMS_P2;Temp;Humidity;BMP_temperature;BMP_pressure;BME280_temperature;BME280_humidity;BME280_pressure;Samples;Min_cycle;Max_cycle;Signal;HPM_P1;HPM_P2
2021/12/05 00:21:57;;;;;;;;;99.25;92.25;7.40;61.80;;;;;;5075505;28;8749;-67
2021/12/05 00:24:26;;;;;;;;;110.25;107.25;7.30;62.30;;;;;;5075544;28;8889;-68
2021/12/05 00:27:02;;;;;;;;;127.00;121.75;7.10;62.90;;;;;;5075424;28;8926;-68
2021/12/05 00:32:35;;;;;;;;;110.00;107.25;6.90;63.60;;;;;;5075154;28;8776;-67
2021/12/05 00:46:23;;;;;;;;;93.25;81.75;7.20;62.80;;;;;;5054975;28;8739;-67
2021/12/05 00:56:28;;;;;;;;;78.50;64.25;7.30;63.80;;;;;;5054847;28;8743;-68
2021/12/05 01:02:10;;;;;;;;;72.25;59.75;7.40;63.40;;;;;;5055018;28;8759;-67
2021/12/05 01:04:38;;;;;;;;;72.25;59.75;7.50;63.60;;;;;;5054517;28;8848;-68
2021/12/05 01:07:44;;;;;;;;;68.00;56.75;7.50;63.50;;;;;;5054514;28;8833;-67
2021/12/05 01:12:46;;;;;;;;;71.25;58.75;7.20;64.70;;;;;;5054570;28;8759;-68
2021/12/05 01:15:19;;;;;;;;;75.25;62.00;7.30;64.80;;;;;;5054565;28;8775;-68
2021/12/05 01:20:22;;;;;;;;;78.00;63.00;7.70;63.80;;;;;;5054531;28;8771;-67
2021/12/05 01:23:00;;;;;;;;;75.75;63.00;7.60;63.70;;;;;;5054398;28;8778;-65
2021/12/05 01:28:09;;;;;;;;;80.25;65.75;7.60;63.90;;;;;;5054677;28;8787;-66
2021/12/05 01:33:36;;;;;;;;;77.00;63.00;7.80;63.60;;;;;;5054358;28;8743;-66
2021/12/05 01:44:04;;;;;;;;;69.00;58.50;7.80;63.50;;;;;;5054227;28;8775;-65
2021/12/05 01:46:50;;;;;;;;;76.50;62.00;7.80;62.90;;;;;;5054156;28;8797;-66
2021/12/05 01:55:45;;;;;;;;;80.00;66.00;8.10;62.30;;;;;;5054212;28;8763;-65
2021/12/05 02:38:09;;;;;;;;;74.00;61.00;7.70;65.50;;;;;;5035405;28;8797;-65
2021/12/05 02:43:25;;;;;;;;;71.75;60.00;7.70;64.70;;;;;;5002840;28;8844;-66
2021/12/05 02:45:53;;;;;;;;;69.75;57.25;7.90;64.20;;;;;;5035198;28;8778;-66
2021/12/05 02:48:22;;;;;;;;;83.25;64.25;7.90;64.30;;;;;;5035033;28;8766;-67
2021/12/05 02:50:48;;;;;;;;;79.50;64.50;7.90;64.30;;;;;;5035218;28;8809;-65
2021/12/05 02:53:28;;;;;;;;;77.75;63.00;8.00;64.30;;;;;;5035188;28;8873;-66
2021/12/05 02:55:54;;;;;;;;;72.75;60.50;7.90;64.70;;;;;;5051674;28;8767;-66
2021/12/05 03:03:30;;;;;;;;;72.00;58.50;8.10;64.30;;;;;;5057170;28;8810;-66
2021/12/05 03:06:04;;;;;;;;;66.25;56.25;8.20;63.60;;;;;;5056912;28;8892;-65
2021/12/05 03:08:30;;;;;;;;;77.25;61.00;8.10;63.70;;;;;;5056875;28;8893;-64
2021/12/05 03:10:58;;;;;;;;;70.25;57.75;8.10;64.00;;;;;;5057071;28;8782;-65
2021/12/05 03:13:24;;;;;;;;;67.25;56.50;8.10;64.40;;;;;;5056808;28;8802;-65
2021/12/05 03:15:50;;;;;;;;;68.50;57.50;7.80;65.00;;;;;;5056697;28;8786;-65
2021/12/05 03:18:16;;;;;;;;;74.00;61.50;7.90;65.00;;;;;;5056615;28;8775;-66
2021/12/05 03:20:43;;;;;;;;;78.25;65.00;7.90;65.20;;;;;;5055968;28;8771;-65
2021/12/05 03:23:09;;;;;;;;;73.00;60.00;7.80;65.50;;;;;;5056183;28;8771;-65
2021/12/05 03:25:35;;;;;;;;;75.50;62.00;7.70;65.20;;;;;;5056567;28;8747;-66
2021/12/05 03:28:02;;;;;;;;;79.50;63.50;7.80;65.40;;;;;;5056696;28;8893;-68
2021/12/05 03:30:28;;;;;;;;;77.50;62.50;7.80;65.20;;;;;;5056635;28;8775;-65
2021/12/05 03:32:56;;;;;;;;;75.75;62.25;8.00;64.90;;;;;;5056419;28;8771;-64
2021/12/05 03:35:26;;;;;;;;;80.50;63.25;7.90;65.10;;;;;;5056315;28;8763;-65
2021/12/05 03:37:53;;;;;;;;;78.00;64.25;8.00;64.60;;;;;;5056462;28;8767;-66
2021/12/05 03:40:22;;;;;;;;;77.00;61.75;8.00;64.40;;;;;;5056282;28;8844;-65
2021/12/05 03:42:49;;;;;;;;;82.25;68.00;8.20;64.00;;;;;;5056649;28;8895;-65
2021/12/05 03:45:20;;;;;;;;;77.50;61.50;8.40;63.40;;;;;;5056170;28;8794;-65
2021/12/05 03:47:46;;;;;;;;;75.25;61.25;8.20;64.00;;;;;;5056129;28;8798;-66
2021/12/05 03:50:13;;;;;;;;;75.75;61.75;8.20;64.40;;;;;;5056038;28;9421;-64
2021/12/05 03:52:40;;;;;;;;;68.25;56.75;8.20;65.10;;;;;;5056240;28;9417;-66
2021/12/05 03:55:08;;;;;;;;;83.25;69.00;8.10;64.70;;;;;;5055978;28;8751;-65
2021/12/05 03:57:34;;;;;;;;;85.00;67.75;7.80;65.30;;;;;;5056068;28;8795;-65
2021/12/05 04:00:01;;;;;;;;;85.25;70.50;7.80;65.40;;;;;;5055888;28;8862;-65
2021/12/05 04:02:26;;;;;;;;;80.00;66.00;7.40;66.50;;;;;;5055976;28;8771;-65
2021/12/05 04:04:52;;;;;;;;;81.25;66.00;7.70;65.70;;;;;;5055728;28;8786;-65
2021/12/05 04:07:18;;;;;;;;;81.75;67.00;8.00;64.60;;;;;;5055575;28;8803;-65
2021/12/05 04:09:46;;;;;;;;;82.00;65.75;8.10;63.90;;;;;;5055898;28;9428;-65
2021/12/05 04:12:15;;;;;;;;;83.00;68.25;8.20;63.80;;;;;;5055834;28;8794;-65
2021/12/05 04:14:48;;;;;;;;;87.75;74.25;8.10;63.90;;;;;;5055817;28;8795;-64
2021/12/05 04:17:17;;;;;;;;;89.00;72.50;8.30;63.50;;;;;;5055608;28;8771;-66
2021/12/05 04:19:43;;;;;;;;;81.75;65.50;8.20;63.50;;;;;;5055351;28;8825;-65
2021/12/05 04:22:09;;;;;;;;;83.00;67.50;8.10;63.90;;;;;;5055486;28;8770;-67
2021/12/05 04:24:35;;;;;;;;;78.50;64.75;7.90;64.50;;;;;;5055265;28;8802;-64
2021/12/05 04:27:01;;;;;;;;;74.50;61.75;7.90;64.90;;;;;;5054953;28;8819;-65
2021/12/05 04:29:27;;;;;;;;;74.00;61.50;7.90;64.70;;;;;;5055413;28;8771;-64
2021/12/05 04:31:53;;;;;;;;;69.75;57.50;7.90;64.60;;;;;;5055131;28;9467;-65
2021/12/05 04:34:19;;;;;;;;;75.00;61.00;7.70;65.50;;;;;;5054899;28;8783;-65
2021/12/05 04:36:46;;;;;;;;;74.75;61.50;7.80;65.60;;;;;;5055056;28;8880;-65
2021/12/05 04:39:13;;;;;;;;;76.00;62.00;7.70;65.90;;;;;;5058249;28;8760;-68
2021/12/05 04:41:41;;;;;;;;;85.00;69.25;7.80;66.20;;;;;;5055061;28;8775;-66
2021/12/05 04:44:07;;;;;;;;;91.50;77.50;8.10;65.90;;;;;;5055133;28;8783;-65
2021/12/05 04:46:34;;;;;;;;;86.00;72.25;8.30;65.80;;;;;;5072326;28;8784;-65
2021/12/05 04:49:01;;;;;;;;;88.75;77.25;8.20;66.10;;;;;;5074932;28;8887;-65
2021/12/05 04:51:35;;;;;;;;;87.75;76.50;8.00;66.90;;;;;;5061961;28;8760;-66
2021/12/05 04:54:01;;;;;;;;;86.75;70.75;8.10;66.50;;;;;;5054833;28;8813;-65
2021/12/05 04:56:28;;;;;;;;;79.75;64.75;8.20;66.50;;;;;;5054855;28;8767;-68
2021/12/05 04:58:55;;;;;;;;;82.75;66.50;8.20;66.20;;;;;;5055032;28;8794;-67
2021/12/05 05:01:22;;;;;;;;;72.75;60.50;8.20;66.30;;;;;;5053689;28;8806;-66
2021/12/05 05:03:48;;;;;;;;;82.25;66.75;8.10;66.40;;;;;;5057044;28;8897;-67
2021/12/05 05:06:16;;;;;;;;;82.50;67.00;7.90;67.50;;;;;;5074415;28;8992;-66
2021/12/05 05:08:45;;;;;;;;;80.00;65.50;7.60;69.30;;;;;;5074604;28;8768;-66
2021/12/05 05:11:13;;;;;;;;;85.50;69.75;7.30;70.90;;;;;;5074441;28;8866;-65
2021/12/05 05:13:40;;;;;;;;;81.50;66.75;7.50;70.10;;;;;;5074552;28;8902;-66
2021/12/05 05:16:07;;;;;;;;;78.25;64.50;7.70;69.50;;;;;;5074751;28;8783;-67
2021/12/05 05:18:48;;;;;;;;;89.00;71.75;7.90;68.50;;;;;;5074337;28;8780;-65
2021/12/05 05:47:35;;;;;;;;;85.00;68.25;8.60;66.20;;;;;;4990944;28;8953;-65
2021/12/05 05:50:01;;;;;;;;;88.50;75.75;8.70;65.90;;;;;;5036302;28;9416;-65
2021/12/05 05:52:29;;;;;;;;;85.75;74.75;8.70;66.40;;;;;;5036220;28;8857;-66
2021/12/05 05:54:57;;;;;;;;;84.75;71.50;8.40;67.00;;;;;;5036152;28;8784;-67
2021/12/05 06:00:33;;;;;;;;;77.50;63.50;8.20;68.60;;;;;;5036148;28;9461;-67
2021/12/05 06:05:24;;;;;;;;;83.00;68.50;8.20;68.90;;;;;;5035815;28;8774;-67
2021/12/05 06:07:50;;;;;;;;;87.50;78.00;8.20;68.50;;;;;;5036061;28;8782;-66
2021/12/05 06:10:22;;;;;;;;;85.50;74.00;8.00;70.20;;;;;;5035854;28;8956;-66
2021/12/05 06:12:48;;;;;;;;;88.25;73.00;7.80;70.60;;;;;;5035723;28;8774;-64
2021/12/05 06:15:16;;;;;;;;;81.00;65.75;7.70;71.60;;;;;;5035811;28;8774;-65
2021/12/05 06:17:42;;;;;;;;;82.50;67.25;8.00;70.20;;;;;;5048533;28;8779;-64
2021/12/05 06:20:11;;;;;;;;;94.75;78.50;8.40;69.40;;;;;;5057711;28;8885;-64
2021/12/05 06:22:37;;;;;;;;;89.75;74.25;8.40;69.00;;;;;;5057604;28;8755;-66
2021/12/05 06:25:06;;;;;;;;;95.25;87.75;8.50;68.70;;;;;;5057707;28;8860;-65
2021/12/05 06:27:32;;;;;;;;;84.50;64.50;8.70;68.60;;;;;;5057911;28;8806;-65
2021/12/05 06:30:15;;;;;;;;;98.00;92.75;8.30;69.80;;;;;;5070121;28;8757;-68
2021/12/05 06:38:30;;;;;;;;;84.00;70.75;8.60;68.50;;;;;;5077445;28;8741;-65
2021/12/05 06:41:02;;;;;;;;;79.00;64.00;8.20;69.80;;;;;;5077362;28;8776;-64
2021/12/05 06:46:15;;;;;;;;;84.25;68.50;8.10;71.20;;;;;;5077634;28;8772;-64
2021/12/05 06:48:43;;;;;;;;;87.25;72.50;8.30;70.40;;;;;;5077329;28;8950;-66
2021/12/05 06:51:10;;;;;;;;;85.25;65.50;8.30;70.50;;;;;;5077176;28;8765;-65
2021/12/05 06:53:37;;;;;;;;;88.50;70.00;8.20;70.60;;;;;;5077129;28;8783;-65
2021/12/05 06:56:04;;;;;;;;;90.00;78.25;8.30;71.00;;;;;;5076822;28;8791;-65
2021/12/05 06:58:32;;;;;;;;;81.00;66.25;8.50;70.00;;;;;;5077655;28;8877;-68
2021/12/05 07:00:59;;;;;;;;;73.75;60.75;8.70;69.10;;;;;;5077021;28;8886;-67
2021/12/05 07:03:25;;;;;;;;;88.00;75.00;8.80;68.50;;;;;;5076892;28;8862;-68
2021/12/05 07:06:33;;;;;;;;;99.25;90.00;8.70;68.50;;;;;;5076753;28;8808;-67
2021/12/05 07:08:40;;;;;;;;;92.75;84.75;8.70;68.60;;;;;;5073746;28;9465;-68
2021/12/05 07:18:59;;;;;;;;;94.00;80.25;8.10;71.10;;;;;;5076746;28;8757;-69
2021/12/05 07:21:36;;;;;;;;;83.25;70.75;8.10;71.40;;;;;;5076721;28;8776;-68
2021/12/05 07:43:04;;;;;;;;;96.50;88.75;8.00;73.20;;;;;;5076159;28;8804;-67
2021/12/05 07:45:43;;;;;;;;;104.75;99.25;7.90;72.90;;;;;;5076229;28;8795;-69
2021/12/05 07:48:18;;;;;;;;;99.25;86.75;8.40;71.90;;;;;;5076373;28;8865;-70
2021/12/05 07:53:21;;;;;;;;;98.25;87.25;8.50;71.40;;;;;;5059675;28;8787;-71
2021/12/05 07:55:51;;;;;;;;;96.25;86.00;8.70;71.50;;;;;;5056051;28;8787;-71
2021/12/05 08:15:17;;;;;;;;;109.75;107.00;9.20;69.00;;;;;;5062116;28;8779;-74
2021/12/05 08:17:51;;;;;;;;;120.25;117.25;9.10;69.30;;;;;;5060778;28;8794;-76
2021/12/05 08:20:19;;;;;;;;;121.50;109.50;9.30;68.90;;;;;;5055487;28;8782;-75
2021/12/05 08:22:45;;;;;;;;;113.75;102.00;9.10;69.40;;;;;;5062648;28;8795;-75
2021/12/05 08:25:12;;;;;;;;;119.75;111.25;9.00;70.00;;;;;;5062011;28;8888;-74
2021/12/05 08:27:44;;;;;;;;;115.75;106.75;8.20;72.80;;;;;;5054314;28;8811;-68
2021/12/05 08:30:14;;;;;;;;;97.75;94.75;8.10;74.00;;;;;;5066770;28;9454;-69
2021/12/05 08:33:17;;;;;;;;;98.00;95.00;8.30;73.50;;;;;;5060033;28;8790;-68
2021/12/05 09:40:14;;;;;;;;;133.50;131.50;10.40;67.80;;;;;;5068074;28;8757;-68
2021/12/05 09:50:56;;;;;;;;;112.00;108.75;10.10;68.90;;;;;;5068680;28;8875;-68
2021/12/05 09:51:35;;;;;;;;;94.25;88.75;10.50;67.80;;;;;;5071962;28;8744;-67
2021/12/05 10:35:55;;;;;;;;;106.25;103.00;9.80;71.60;;;;;;5056841;28;8858;-67
2021/12/05 10:37:59;;;;;;;;;105.50;101.25;9.50;72.70;;;;;;5056810;28;8795;-66
2021/12/05 10:40:35;;;;;;;;;105.50;96.00;9.60;73.00;;;;;;5068192;28;8783;-66
2021/12/05 10:43:03;;;;;;;;;96.50;92.25;9.40;73.60;;;;;;5072369;28;8807;-69
2021/12/05 10:45:36;;;;;;;;;130.50;125.50;9.20;74.10;;;;;;5072940;28;8865;-68
2021/12/05 10:48:18;;;;;;;;;124.00;119.50;9.30;74.10;;;;;;5074021;28;8799;-68
2021/12/05 10:50:47;;;;;;;;;134.50;127.25;9.30;74.90;;;;;;5071791;28;8792;-67
2021/12/05 10:53:30;;;;;;;;;140.50;132.25;9.10;75.40;;;;;;5073953;28;8795;-67
2021/12/05 10:56:13;;;;;;;;;145.75;140.25;9.10;75.50;;;;;;5075252;28;8764;-67
2021/12/05 10:58:44;;;;;;;;;140.50;137.75;9.00;76.20;;;;;;5072486;28;8887;-67
2021/12/05 11:01:15;;;;;;;;;133.25;127.25;8.90;76.80;;;;;;5071806;28;8765;-67
2021/12/05 11:03:41;;;;;;;;;122.50;118.75;9.00;76.40;;;;;;5072132;28;8881;-67
2021/12/05 11:06:38;;;;;;;;;125.00;120.00;9.00;76.00;;;;;;5070754;28;10464;-67
2021/12/05 11:09:16;;;;;;;;;101.25;98.25;9.40;74.90;;;;;;5064684;28;8781;-75
2021/12/05 11:11:45;;;;;;;;;109.50;104.75;9.60;74.10;;;;;;5072695;28;8865;-74
2021/12/05 11:14:27;;;;;;;;;80.00;65.00;10.00;72.50;;;;;;5072223;28;9490;-76
2021/12/05 11:17:05;;;;;;;;;66.75;56.00;10.30;71.00;;;;;;5072461;28;8775;-73
2021/12/05 11:19:44;;;;;;;;;77.00;63.25;10.40;70.10;;;;;;5066401;28;8912;-74
2021/12/05 11:22:18;;;;;;;;;105.00;96.75;10.40;69.70;;;;;;5073942;28;8794;-74
2021/12/05 11:25:00;;;;;;;;;123.75;117.25;10.30;70.20;;;;;;5074134;28;8800;-73
2021/12/05 11:27:29;;;;;;;;;172.25;162.00;10.20;70.40;;;;;;5072531;28;8796;-73
2021/12/05 11:30:00;;;;;;;;;138.00;131.25;10.20;70.00;;;;;;5069843;28;8777;-69
2021/12/05 11:32:48;;;;;;;;;128.50;120.00;9.60;72.30;;;;;;5071077;28;8799;-63
2021/12/05 11:35:19;;;;;;;;;120.25;115.00;9.80;71.60;;;;;;5073294;28;8761;-65
2021/12/05 11:37:52;;;;;;;;;109.75;105.00;9.70;71.50;;;;;;5072418;28;8791;-64
2021/12/05 11:40:19;;;;;;;;;118.75;115.75;10.10;70.50;;;;;;5074782;28;8752;-63
2021/12/05 11:43:02;;;;;;;;;105.00;103.00;10.30;69.70;;;;;;5071068;28;8788;-68
2021/12/05 11:45:31;;;;;;;;;89.50;76.00;10.10;70.80;;;;;;5072776;28;8772;-66
2021/12/05 11:47:58;;;;;;;;;89.50;84.25;10.00;70.80;;;;;;5074752;28;8865;-66
2021/12/05 11:50:33;;;;;;;;;84.25;70.00;10.00;71.10;;;;;;5072035;28;8761;-69
2021/12/05 11:52:59;;;;;;;;;77.25;63.00;9.90;71.40;;;;;;5074657;28;8885;-67
2021/12/05 11:55:28;;;;;;;;;77.75;63.50;9.90;71.40;;;;;;5074583;28;8856;-67
2021/12/05 11:57:54;;;;;;;;;79.50;64.75;9.90;71.70;;;;;;5074731;28;8801;-68
2021/12/05 12:00:22;;;;;;;;;81.00;66.50;9.90;71.20;;;;;;5075770;28;8791;-68
2021/12/05 12:02:49;;;;;;;;;103.50;99.25;10.10;70.50;;;;;;5074494;28;8795;-67
2021/12/05 12:05:29;;;;;;;;;117.75;108.75;9.40;73.40;;;;;;5075438;28;8773;-68
2021/12/05 12:08:12;;;;;;;;;98.50;87.25;8.60;76.60;;;;;;5075670;28;8756;-66
2021/12/05 12:10:48;;;;;;;;;117.25;113.75;8.20;79.10;;;;;;5074273;28;8849;-66
2021/12/05 12:13:23;;;;;;;;;127.75;118.75;8.20;79.50;;;;;;5074893;28;8756;-67
2021/12/05 12:15:58;;;;;;;;;112.75;107.25;8.50;79.10;;;;;;5074674;28;8764;-68
2021/12/05 12:18:31;;;;;;;;;110.75;108.75;8.80;77.70;;;;;;5074545;28;8792;-67
2021/12/05 12:21:00;;;;;;;;;120.25;116.75;9.00;76.30;;;;;;5075095;28;8749;-66
2021/12/05 12:23:27;;;;;;;;;137.75;134.50;9.50;74.40;;;;;;5075276;28;8796;-66
2021/12/05 12:25:56;;;;;;;;;132.00;129.25;9.50;73.90;;;;;;5075403;28;8871;-67
2021/12/05 12:28:23;;;;;;;;;152.25;132.50;9.50;74.40;;;;;;5075529;28;8885;-67
2021/12/05 12:30:55;;;;;;;;;128.50;117.00;9.40;74.60;;;;;;5075147;28;8792;-66
2021/12/05 12:33:42;;;;;;;;;114.50;111.75;9.70;73.90;;;;;;5075003;28;8772;-66
2021/12/05 12:36:08;;;;;;;;;122.25;115.50;9.50;74.40;;;;;;5070731;28;8796;-66
2021/12/05 12:38:40;;;;;;;;;123.00;122.50;9.00;76.00;;;;;;5069676;28;8829;-66
2021/12/05 12:41:22;;;;;;;;;140.00;133.75;8.80;77.60;;;;;;5060962;28;9482;-69
2021/12/05 12:43:48;;;;;;;;;140.00;133.50;8.70;78.40;;;;;;5067311;28;8843;-66
2021/12/05 12:46:36;;;;;;;;;144.50;134.00;8.60;78.30;;;;;;5061492;28;8799;-66
2021/12/05 12:49:16;;;;;;;;;119.50;106.75;8.20;80.20;;;;;;5071530;28;8768;-66
2021/12/05 12:51:49;;;;;;;;;100.50;93.50;8.10;80.80;;;;;;5054767;28;8798;-66
2021/12/05 12:54:25;;;;;;;;;99.00;88.75;8.20;80.40;;;;;;5068233;28;8761;-67
2021/12/05 12:57:32;;;;;;;;;91.50;77.75;8.20;80.70;;;;;;5075013;28;8797;-67
2021/12/05 13:00:12;;;;;;;;;85.50;71.00;8.10;80.90;;;;;;5074416;28;8865;-68
2021/12/05 13:07:21;;;;;;;;;88.75;77.25;8.10;81.60;;;;;;5079938;28;8773;-68
2021/12/05 13:11:12;;;;;;;;;93.25;89.75;8.50;79.10;;;;;;5065536;28;8737;-65
2021/12/05 13:13:40;;;;;;;;;90.00;81.00;8.60;79.50;;;;;;5059077;28;8825;-65
2021/12/05 13:16:28;;;;;;;;;81.25;68.50;8.40;80.10;;;;;;5064451;28;8771;-66
2021/12/05 13:19:08;;;;;;;;;87.50;79.75;8.40;80.70;;;;;;5054527;28;8770;-67
2021/12/05 13:21:39;;;;;;;;;86.00;74.00;8.30;80.60;;;;;;5053609;28;9457;-67
2021/12/05 13:24:29;;;;;;;;;87.25;75.75;8.30;81.10;;;;;;5054492;28;8786;-67
2021/12/05 13:27:26;;;;;;;;;89.50;80.50;8.30;81.70;;;;;;5054020;28;8830;-69
2021/12/05 13:29:54;;;;;;;;;94.25;83.25;8.10;83.00;;;;;;5053675;28;8807;-67
2021/12/05 13:32:25;;;;;;;;;93.00;86.00;8.20;82.30;;;;;;5055733;28;8782;-67
2021/12/05 13:34:53;;;;;;;;;93.25;90.00;8.60;81.00;;;;;;5074171;28;8915;-66
2021/12/05 13:37:23;;;;;;;;;92.50;88.25;8.60;80.40;;;;;;5074149;28;8765;-65
2021/12/05 13:40:22;;;;;;;;;98.25;95.00;8.40;81.00;;;;;;5074374;28;9454;-65
2021/12/05 13:43:01;;;;;;;;;88.75;78.50;8.40;82.00;;;;;;5074416;28;8829;-65
2021/12/05 13:45:27;;;;;;;;;86.50;78.50;8.50;81.30;;;;;;5074119;28;8819;-70
2021/12/05 13:47:53;;;;;;;;;87.25;78.75;8.60;80.90;;;;;;5074031;28;8780;-67
2021/12/05 13:50:19;;;;;;;;;88.00;74.50;8.80;80.10;;;;;;5074277;28;8783;-69
2021/12/05 13:52:49;;;;;;;;;94.00;91.00;8.70;80.70;;;;;;5073769;28;8968;-66
2021/12/05 13:55:34;;;;;;;;;93.00;80.50;8.90;80.00;;;;;;5073916;28;8772;-66
2021/12/05 13:58:38;;;;;;;;;99.75;84.00;8.70;80.80;;;;;;5073877;28;8781;-67
2021/12/05 14:01:06;;;;;;;;;94.75;85.75;9.10;79.00;;;;;;5074101;28;8896;-68
2021/12/05 14:04:18;;;;;;;;;92.25;82.75;9.10;78.50;;;;;;5085514;28;8798;-68
2021/12/05 14:06:54;;;;;;;;;96.25;85.50;8.70;80.50;;;;;;5077688;28;8813;-67
2021/12/05 14:09:26;;;;;;;;;95.25;86.75;8.60;80.90;;;;;;5098300;28;9768;-68
2021/12/05 14:11:52;;;;;;;;;91.50;83.50;8.60;81.00;;;;;;5098469;28;9451;-66
2021/12/05 14:14:20;;;;;;;;;92.00;85.25;9.00;79.70;;;;;;5090918;28;8799;-69
2021/12/05 14:16:48;;;;;;;;;94.00;91.50;9.00;78.70;;;;;;5078006;28;8760;-68
2021/12/05 14:19:17;;;;;;;;;97.50;90.25;8.70;80.50;;;;;;5077781;28;8764;-68
2021/12/05 14:21:47;;;;;;;;;95.25;92.00;8.40;81.70;;;;;;5077734;28;8756;-68
2021/12/05 14:24:13;;;;;;;;;93.50;83.75;8.40;82.20;;;;;;5077500;28;8818;-68
2021/12/05 14:26:40;;;;;;;;;90.50;83.50;8.30;82.70;;;;;;5077603;28;8773;-67
2021/12/05 14:29:12;;;;;;;;;87.50;78.00;8.60;81.70;;;;;;5077248;28;9423;-66
2021/12/05 14:31:46;;;;;;;;;91.50;85.00;8.40;82.50;;;;;;5077471;28;8883;-68
2021/12/05 14:34:13;;;;;;;;;84.00;72.50;8.20;83.60;;;;;;5094726;28;8778;-69
2021/12/05 14:36:45;;;;;;;;;89.75;80.00;8.10;84.60;;;;;;5097701;28;8788;-68
2021/12/05 14:39:26;;;;;;;;;90.00;83.75;8.20;83.90;;;;;;5097590;28;8761;-69
2021/12/05 14:41:58;;;;;;;;;89.75;84.25;8.30;83.70;;;;;;5097556;28;8793;-69
2021/12/05 14:44:24;;;;;;;;;81.00;65.50;8.60;82.40;;;;;;5097704;28;8813;-69
2021/12/05 14:47:07;;;;;;;;;87.00;75.75;8.50;81.70;;;;;;5097457;28;8761;-69
2021/12/05 14:49:40;;;;;;;;;91.75;84.75;8.40;82.60;;;;;;5088168;28;8838;-69
2021/12/05 14:52:13;;;;;;;;;97.50;89.50;8.60;81.80;;;;;;5077418;28;8899;-69
2021/12/05 14:54:41;;;;;;;;;92.25;85.00;8.60;82.30;;;;;;5077219;28;8768;-68
2021/12/05 14:57:19;;;;;;;;;91.25;87.00;8.50;82.80;;;;;;5076981;28;8784;-70
2021/12/05 14:59:47;;;;;;;;;101.25;99.00;8.40;82.90;;;;;;5077312;28;8760;-68
2021/12/05 15:02:16;;;;;;;;;95.75;89.25;8.50;82.60;;;;;;5077422;28;8756;-71
2021/12/05 15:04:47;;;;;;;;;92.00;86.00;8.40;83.80;;;;;;5096135;28;8817;-67
2021/12/05 15:07:16;;;;;;;;;91.50;84.25;8.30;83.70;;;;;;5096803;28;8797;-68
2021/12/05 15:09:45;;;;;;;;;89.75;82.25;8.30;83.80;;;;;;5097068;28;8797;-67
2021/12/05 15:12:19;;;;;;;;;86.75;76.00;8.20;84.30;;;;;;5097345;28;8807;-68
2021/12/05 15:14:47;;;;;;;;;93.50;85.25;8.40;83.60;;;;;;5085846;28;8788;-68
2021/12/05 15:17:18;;;;;;;;;92.25;88.25;8.20;84.00;;;;;;5076571;28;8887;-70
2021/12/05 15:19:51;;;;;;;;;89.25;80.50;8.10;85.00;;;;;;5076696;28;8794;-67
2021/12/05 15:22:18;;;;;;;;;91.25;81.25;8.00;85.80;;;;;;5076879;28;8764;-67
2021/12/05 15:24:57;;;;;;;;;82.50;69.50;8.00;86.10;;;;;;5076371;28;8796;-67
2021/12/05 15:27:26;;;;;;;;;87.50;77.00;7.80;86.60;;;;;;5076474;28;8792;-67
2021/12/05 15:29:58;;;;;;;;;89.50;80.00;7.90;86.70;;;;;;5076682;28;8784;-67
2021/12/05 15:32:28;;;;;;;;;91.25;86.00;7.90;85.80;;;;;;5078330;28;8772;-68
2021/12/05 15:35:00;;;;;;;;;89.25;82.00;8.00;85.60;;;;;;5096845;28;8895;-67
2021/12/05 15:37:26;;;;;;;;;88.00;72.25;8.00;85.20;;;;;;5093151;28;8779;-70
2021/12/05 15:39:54;;;;;;;;;91.00;82.50;8.10;84.80;;;;;;5065342;28;8785;-68
2021/12/05 15:42:32;;;;;;;;;91.25;85.25;8.20;83.80;;;;;;5066494;28;8794;-65
2021/12/05 15:45:01;;;;;;;;;86.75;78.25;8.20;84.40;;;;;;5065318;28;8902;-66
2021/12/05 15:47:33;;;;;;;;;90.25;80.00;8.30;83.60;;;;;;5075790;28;8767;-66
2021/12/05 15:50:01;;;;;;;;;100.25;92.00;8.20;84.10;;;;;;5061586;28;8788;-68
2021/12/05 15:52:37;;;;;;;;;97.75;91.25;8.10;84.30;;;;;;5071709;28;8800;-69
2021/12/05 15:55:07;;;;;;;;;89.50;82.50;8.20;84.30;;;;;;5067801;28;8770;-66
2021/12/05 15:57:37;;;;;;;;;83.25;72.25;8.00;84.70;;;;;;5060945;28;9465;-68
2021/12/05 16:00:23;;;;;;;;;86.00;76.50;7.90;85.70;;;;;;5075130;28;8748;-68
2021/12/05 16:02:57;;;;;;;;;87.50;75.75;8.00;86.00;;;;;;5075343;28;8768;-68
2021/12/05 16:05:23;;;;;;;;;92.00;82.50;8.00;85.50;;;;;;5075358;28;8841;-66
2021/12/05 16:07:50;;;;;;;;;90.50;84.50;8.10;84.90;;;;;;5075639;28;8773;-68
2021/12/05 16:10:20;;;;;;;;;85.50;70.75;8.00;85.20;;;;;;5073827;28;9445;-68
2021/12/05 16:12:46;;;;;;;;;87.50;74.75;8.00;85.00;;;;;;5010890;28;8804;-66
2021/12/05 16:15:16;;;;;;;;;90.50;84.00;7.90;85.90;;;;;;5066915;28;8811;-65
2021/12/05 16:17:50;;;;;;;;;86.25;76.00;7.90;86.30;;;;;;5057728;28;8795;-67
2021/12/05 16:20:51;;;;;;;;;90.00;76.75;7.90;86.30;;;;;;5075721;28;8768;-70
2021/12/05 16:23:35;;;;;;;;;88.25;78.00;7.80;86.80;;;;;;5067828;28;8828;-69
2021/12/05 16:26:24;;;;;;;;;93.25;85.75;7.80;87.90;;;;;;5061421;28;8799;-69
2021/12/05 16:29:15;;;;;;;;;95.50;89.50;7.80;86.50;;;;;;5074355;28;8796;-69
2021/12/05 16:31:53;;;;;;;;;93.25;89.50;7.70;86.60;;;;;;5076090;28;8834;-70
2021/12/05 16:34:42;;;;;;;;;68.00;51.75;7.80;86.10;;;;;;5075778;28;8776;-69
2021/12/05 16:37:09;;;;;;;;;93.50;87.00;7.70;86.50;;;;;;5075416;28;8780;-70
2021/12/05 16:39:49;;;;;;;;;100.00;93.75;7.80;86.30;;;;;;5075280;28;8777;-69
2021/12/05 16:42:24;;;;;;;;;97.00;86.00;7.70;86.50;;;;;;5072200;28;8788;-68
2021/12/05 16:44:56;;;;;;;;;94.50;88.75;7.80;86.40;;;;;;5063997;28;8828;-68
2021/12/05 16:47:31;;;;;;;;;102.25;99.00;7.80;86.10;;;;;;5071318;28;8816;-67
2021/12/05 16:50:00;;;;;;;;;103.50;101.00;7.90;86.00;;;;;;5074847;28;8780;-67
2021/12/05 16:52:31;;;;;;;;;99.00;94.50;7.80;86.00;;;;;;5058465;28;8775;-69
2021/12/05 16:55:16;;;;;;;;;92.00;87.00;7.90;85.70;;;;;;5054831;28;8787;-68
2021/12/05 16:57:52;;;;;;;;;95.00;92.75;8.20;84.00;;;;;;5063599;28;8901;-68
2021/12/05 17:00:23;;;;;;;;;94.50;93.00;8.40;82.80;;;;;;5074534;28;8768;-67
2021/12/05 17:02:52;;;;;;;;;103.25;95.50;8.40;82.30;;;;;;5074225;28;8879;-67
2021/12/05 17:05:36;;;;;;;;;94.25;90.50;8.40;82.00;;;;;;5074055;28;8869;-68
2021/12/05 17:08:10;;;;;;;;;93.00;85.75;8.50;81.40;;;;;;5074423;28;8803;-66
2021/12/05 17:10:49;;;;;;;;;87.25;75.75;8.70;80.90;;;;;;5070421;28;9707;-68
2021/12/05 17:13:31;;;;;;;;;92.75;84.50;8.50;80.70;;;;;;5064093;28;8791;-67
2021/12/05 17:16:15;;;;;;;;;98.75;86.75;8.30;82.10;;;;;;5069372;28;8789;-64
2021/12/05 17:18:43;;;;;;;;;94.50;85.00;8.30;82.20;;;;;;5054545;28;8775;-64
2021/12/05 17:21:19;;;;;;;;;92.50;83.50;8.60;81.10;;;;;;5057542;28;8802;-65
2021/12/05 17:23:53;;;;;;;;;95.25;85.25;8.40;81.20;;;;;;5060745;28;9437;-67
2021/12/05 17:26:24;;;;;;;;;94.00;88.00;8.70;80.80;;;;;;5054180;28;8759;-65
2021/12/05 17:29:00;;;;;;;;;96.25;93.00;9.20;78.40;;;;;;5067082;28;8769;-67
2021/12/05 17:31:30;;;;;;;;;103.75;100.50;9.10;78.20;;;;;;5054046;28;8771;-68
2021/12/05 17:34:02;;;;;;;;;100.75;100.50;9.20;78.20;;;;;;5065615;28;8787;-69
2021/12/05 17:36:30;;;;;;;;;111.00;107.00;9.50;76.70;;;;;;5059356;28;8770;-69
2021/12/05 17:39:23;;;;;;;;;114.00;111.75;9.90;75.60;;;;;;5061131;28;8792;-69
2021/12/05 17:41:54;;;;;;;;;115.00;114.25;10.20;74.00;;;;;;5061975;28;8856;-65
2021/12/05 17:44:20;;;;;;;;;134.25;131.50;10.10;74.30;;;;;;5065502;28;8808;-68
2021/12/05 17:46:50;;;;;;;;;134.00;124.75;10.20;74.10;;;;;;5056655;28;8782;-68
2021/12/05 17:49:18;;;;;;;;;135.00;124.00;10.20;73.20;;;;;;5061172;28;8775;-68
2021/12/05 17:51:45;;;;;;;;;155.25;150.25;10.20;73.40;;;;;;5072745;28;8839;-68
2021/12/05 17:54:37;;;;;;;;;154.50;143.50;10.30;73.10;;;;;;5074086;28;8868;-70
2021/12/05 17:57:09;;;;;;;;;154.25;142.50;10.30;73.20;;;;;;5073870;28;8791;-68
2021/12/05 18:02:53;;;;;;;;;182.50;174.25;9.80;74.60;;;;;;5074108;28;8756;-68
2021/12/05 18:05:28;;;;;;;;;168.75;164.25;9.60;75.80;;;;;;5073722;28;8827;-70
2021/12/05 18:07:58;;;;;;;;;156.75;144.75;9.70;76.00;;;;;;5073813;28;8849;-69
2021/12/05 18:10:28;;;;;;;;;138.25;131.25;9.60;76.20;;;;;;5074152;28;8867;-69
2021/12/05 18:12:58;;;;;;;;;153.00;146.75;9.80;76.30;;;;;;5074025;28;8784;-70
2021/12/05 18:15:28;;;;;;;;;169.75;160.75;9.40;77.00;;;;;;5073949;28;8890;-66
2021/12/05 18:17:57;;;;;;;;;172.50;163.00;9.30;77.80;;;;;;5055061;28;8791;-69
2021/12/05 18:20:27;;;;;;;;;140.00;136.00;8.90;79.30;;;;;;5053883;28;8763;-67
2021/12/05 18:22:55;;;;;;;;;148.00;139.75;9.30;78.40;;;;;;5093920;28;9317;-68
2021/12/05 18:25:21;;;;;;;;;121.75;119.50;9.90;75.60;;;;;;5090480;28;8907;-69
2021/12/05 18:27:48;;;;;;;;;111.50;111.50;9.40;76.50;;;;;;5073941;28;8934;-70
2021/12/05 18:30:18;;;;;;;;;122.50;117.00;9.10;78.60;;;;;;5073491;28;8768;-68
2021/12/05 18:32:45;;;;;;;;;118.25;116.25;9.40;77.60;;;;;;5073911;28;8764;-67